sensor_id;sensor_type;location;lat;lon;timestamp;temperature;humidity
66026;SHT31;56312;55.976;37.136;2023-03-13T00:02:05;-4.79;84.54
66026;SHT31;56312;55.976;37.136;2023-03-13T00:07:12;-4.90;84.51
66026;SHT31;56312;55.976;37.136;2023-03-13T00:12:18;-4.98;84.50
66026;SHT31;56312;55.976;37.136;2023-03-13T00:17:25;-5.08;84.41
66026;SHT31;56312;55.976;37.136;2023-03-13T00:22:31;-5.17;84.41
66026;SHT31;56312;55.976;37.136;2023-03-13T00:27:37;-5.28;84.35
66026;SHT31;56312;55.976;37.136;2023-03-13T00:32:44;-5.34;84.33
66026;SHT31;56312;55.976;37.136;2023-03-13T00:37:51;-5.42;84.35
66026;SHT31;56312;55.976;37.136;2023-03-13T00:42:57;-5.46;84.36
66026;SHT31;56312;55.976;37.136;2023-03-13T00:48:04;-5.58;84.28
66026;SHT31;56312;55.976;37.136;2023-03-13T00:53:10;-5.63;84.29
66026;SHT31;56312;55.976;37.136;2023-03-13T00:58:17;-5.73;84.23
66026;SHT31;56312;55.976;37.136;2023-03-13T01:03:23;-5.87;84.17
66026;SHT31;56312;55.976;37.136;2023-03-13T01:08:30;-5.94;84.19
66026;SHT31;56312;55.976;37.136;2023-03-13T01:13:37;-5.94;84.19
66026;SHT31;56312;55.976;37.136;2023-03-13T01:18:47;-5.98;84.21
66026;SHT31;56312;55.976;37.136;2023-03-13T01:23:54;-6.04;84.16
66026;SHT31;56312;55.976;37.136;2023-03-13T01:29:00;-6.07;84.18
66026;SHT31;56312;55.976;37.136;2023-03-13T01:34:08;-6.07;84.25
66026;SHT31;56312;55.976;37.136;2023-03-13T01:39:15;-6.05;84.25
66026;SHT31;56312;55.976;37.136;2023-03-13T01:44:24;-6.08;84.21
66026;SHT31;56312;55.976;37.136;2023-03-13T01:49:32;-6.17;84.20
66026;SHT31;56312;55.976;37.136;2023-03-13T01:54:46;-6.22;84.24
66026;SHT31;56312;55.976;37.136;2023-03-13T01:59:59;-6.26;84.21
66026;SHT31;56312;55.976;37.136;2023-03-13T02:05:07;-6.35;84.18
66026;SHT31;56312;55.976;37.136;2023-03-13T02:10:15;-6.38;84.14
66026;SHT31;56312;55.976;37.136;2023-03-13T02:15:24;-6.36;84.13
66026;SHT31;56312;55.976;37.136;2023-03-13T02:20:30;-6.49;84.10
66026;SHT31;56312;55.976;37.136;2023-03-13T02:25:41;-6.54;84.06
66026;SHT31;56312;55.976;37.136;2023-03-13T02:30:50;-6.65;84.03
66026;SHT31;56312;55.976;37.136;2023-03-13T02:35:59;-6.72;83.95
66026;SHT31;56312;55.976;37.136;2023-03-13T02:41:07;-6.73;83.99
66026;SHT31;56312;55.976;37.136;2023-03-13T02:46:19;-6.77;83.87
66026;SHT31;56312;55.976;37.136;2023-03-13T02:51:31;-6.89;83.84
66026;SHT31;56312;55.976;37.136;2023-03-13T02:56:41;-6.94;83.90
66026;SHT31;56312;55.976;37.136;2023-03-13T03:01:48;-6.91;83.87
66026;SHT31;56312;55.976;37.136;2023-03-13T03:06:57;-6.96;83.89
66026;SHT31;56312;55.976;37.136;2023-03-13T03:12:04;-6.97;83.90
66026;SHT31;56312;55.976;37.136;2023-03-13T03:17:10;-6.99;83.86
66026;SHT31;56312;55.976;37.136;2023-03-13T03:22:16;-7.01;83.87
66026;SHT31;56312;55.976;37.136;2023-03-13T03:27:22;-7.07;83.82
66026;SHT31;56312;55.976;37.136;2023-03-13T03:32:29;-7.11;83.81
66026;SHT31;56312;55.976;37.136;2023-03-13T03:37:35;-7.12;83.83
66026;SHT31;56312;55.976;37.136;2023-03-13T03:42:41;-7.17;83.82
66026;SHT31;56312;55.976;37.136;2023-03-13T03:47:48;-7.17;83.76
66026;SHT31;56312;55.976;37.136;2023-03-13T03:52:54;-7.19;83.74
66026;SHT31;56312;55.976;37.136;2023-03-13T03:58:00;-7.25;83.76
66026;SHT31;56312;55.976;37.136;2023-03-13T04:03:06;-7.15;83.79
66026;SHT31;56312;55.976;37.136;2023-03-13T04:08:13;-7.01;83.83
66026;SHT31;56312;55.976;37.136;2023-03-13T04:13:19;-6.86;83.88
66026;SHT31;56312;55.976;37.136;2023-03-13T04:18:25;-6.73;83.92
66026;SHT31;56312;55.976;37.136;2023-03-13T04:23:32;-6.58;83.93
66026;SHT31;56312;55.976;37.136;2023-03-13T04:28:38;-6.48;83.89
66026;SHT31;56312;55.976;37.136;2023-03-13T04:33:44;-6.39;83.95
66026;SHT31;56312;55.976;37.136;2023-03-13T04:38:50;-6.31;83.90
66026;SHT31;56312;55.976;37.136;2023-03-13T04:43:57;-6.21;83.88
66026;SHT31;56312;55.976;37.136;2023-03-13T04:49:03;-6.11;83.97
66026;SHT31;56312;55.976;37.136;2023-03-13T04:54:10;-5.98;84.05
66026;SHT31;56312;55.976;37.136;2023-03-13T04:59:16;-5.79;84.00
66026;SHT31;56312;55.976;37.136;2023-03-13T05:04:22;-5.60;83.95
66026;SHT31;56312;55.976;37.136;2023-03-13T05:09:29;-5.38;83.92
66026;SHT31;56312;55.976;37.136;2023-03-13T05:14:35;-4.90;83.93
66026;SHT31;56312;55.976;37.136;2023-03-13T05:19:41;-4.60;83.92
66026;SHT31;56312;55.976;37.136;2023-03-13T05:24:48;-4.62;83.65
66026;SHT31;56312;55.976;37.136;2023-03-13T05:29:54;-4.94;83.50
66026;SHT31;56312;55.976;37.136;2023-03-13T05:35:00;-4.41;83.97
66026;SHT31;56312;55.976;37.136;2023-03-13T05:40:07;-4.10;83.75
66026;SHT31;56312;55.976;37.136;2023-03-13T05:45:14;-3.52;84.01
66026;SHT31;56312;55.976;37.136;2023-03-13T05:50:20;-2.68;84.16
66026;SHT31;56312;55.976;37.136;2023-03-13T05:55:26;-3.00;83.12
66026;SHT31;56312;55.976;37.136;2023-03-13T06:00:33;-3.55;83.07
66026;SHT31;56312;55.976;37.136;2023-03-13T06:05:40;-2.31;83.65
66026;SHT31;56312;55.976;37.136;2023-03-13T06:10:46;-2.05;83.99
66026;SHT31;56312;55.976;37.136;2023-03-13T06:15:53;-2.45;83.23
66026;SHT31;56312;55.976;37.136;2023-03-13T06:21:01;-2.69;82.61
66026;SHT31;56312;55.976;37.136;2023-03-13T06:26:07;-3.00;82.44
66026;SHT31;56312;55.976;37.136;2023-03-13T06:31:13;-3.42;82.41
66026;SHT31;56312;55.976;37.136;2023-03-13T06:36:20;-3.55;82.54
66026;SHT31;56312;55.976;37.136;2023-03-13T06:41:27;-3.48;82.73
66026;SHT31;56312;55.976;37.136;2023-03-13T06:46:33;-3.31;82.77
66026;SHT31;56312;55.976;37.136;2023-03-13T06:51:39;-3.07;82.97
66026;SHT31;56312;55.976;37.136;2023-03-13T06:56:45;-2.80;82.88
66026;SHT31;56312;55.976;37.136;2023-03-13T07:01:52;-2.38;83.08
66026;SHT31;56312;55.976;37.136;2023-03-13T07:06:58;-2.20;82.99
66026;SHT31;56312;55.976;37.136;2023-03-13T07:12:04;-2.10;82.96
66026;SHT31;56312;55.976;37.136;2023-03-13T07:17:11;-2.37;82.65
66026;SHT31;56312;55.976;37.136;2023-03-13T07:22:17;-2.65;82.68
66026;SHT31;56312;55.976;37.136;2023-03-13T07:27:23;-2.84;82.63
66026;SHT31;56312;55.976;37.136;2023-03-13T07:32:30;-2.98;82.78
66026;SHT31;56312;55.976;37.136;2023-03-13T07:37:38;-3.04;82.83
66026;SHT31;56312;55.976;37.136;2023-03-13T07:42:44;-3.21;83.04
66026;SHT31;56312;55.976;37.136;2023-03-13T07:47:50;-3.09;83.18
66026;SHT31;56312;55.976;37.136;2023-03-13T07:52:57;-3.00;83.26
66026;SHT31;56312;55.976;37.136;2023-03-13T07:58:03;-3.00;83.24
66026;SHT31;56312;55.976;37.136;2023-03-13T08:03:09;-3.07;83.32
66026;SHT31;56312;55.976;37.136;2023-03-13T08:08:15;-3.04;83.28
66026;SHT31;56312;55.976;37.136;2023-03-13T08:13:22;-3.14;83.30
66026;SHT31;56312;55.976;37.136;2023-03-13T08:18:28;-3.19;83.35
66026;SHT31;56312;55.976;37.136;2023-03-13T08:23:35;-3.14;83.44
66026;SHT31;56312;55.976;37.136;2023-03-13T08:28:43;-2.93;83.47
66026;SHT31;56312;55.976;37.136;2023-03-13T08:33:50;-2.90;83.39
66026;SHT31;56312;55.976;37.136;2023-03-13T08:39:01;-2.97;83.33
66026;SHT31;56312;55.976;37.136;2023-03-13T08:44:11;-3.07;83.28
66026;SHT31;56312;55.976;37.136;2023-03-13T08:49:18;-3.21;83.29
66026;SHT31;56312;55.976;37.136;2023-03-13T08:54:24;-3.34;83.28
66026;SHT31;56312;55.976;37.136;2023-03-13T08:59:31;-3.39;83.27
66026;SHT31;56312;55.976;37.136;2023-03-13T09:04:37;-3.45;83.43
66026;SHT31;56312;55.976;37.136;2023-03-13T09:09:43;-3.28;83.46
66026;SHT31;56312;55.976;37.136;2023-03-13T09:14:49;-3.27;83.46
66026;SHT31;56312;55.976;37.136;2023-03-13T09:19:56;-3.27;83.42
66026;SHT31;56312;55.976;37.136;2023-03-13T09:25:02;-3.27;83.44
66026;SHT31;56312;55.976;37.136;2023-03-13T09:30:09;-3.15;83.48
66026;SHT31;56312;55.976;37.136;2023-03-13T09:35:15;-3.07;83.42
66026;SHT31;56312;55.976;37.136;2023-03-13T09:40:23;-3.04;83.36
66026;SHT31;56312;55.976;37.136;2023-03-13T09:45:37;-3.00;83.29
66026;SHT31;56312;55.976;37.136;2023-03-13T09:51:14;-3.04;83.30
66026;SHT31;56312;55.976;37.136;2023-03-13T09:56:27;-2.77;83.40
66026;SHT31;56312;55.976;37.136;2023-03-13T10:01:36;-2.76;83.27
66026;SHT31;56312;55.976;37.136;2023-03-13T10:06:46;-2.76;83.18
66026;SHT31;56312;55.976;37.136;2023-03-13T10:12:40;-2.76;83.13
66026;SHT31;56312;55.976;37.136;2023-03-13T10:17:36;-2.84;83.10
66026;SHT31;56312;55.976;37.136;2023-03-13T10:22:47;-2.77;83.13
66026;SHT31;56312;55.976;37.136;2023-03-13T10:27:57;-2.72;83.13
66026;SHT31;56312;55.976;37.136;2023-03-13T10:38:16;-2.48;83.03
66026;SHT31;56312;55.976;37.136;2023-03-13T10:43:24;-2.48;82.95
66026;SHT31;56312;55.976;37.136;2023-03-13T10:48:35;-2.37;82.94
66026;SHT31;56312;55.976;37.136;2023-03-13T10:53:42;-2.34;82.88
66026;SHT31;56312;55.976;37.136;2023-03-13T10:58:51;-2.42;82.90
66026;SHT31;56312;55.976;37.136;2023-03-13T11:03:58;-2.27;82.98
66026;SHT31;56312;55.976;37.136;2023-03-13T11:09:14;-2.05;83.01
66026;SHT31;56312;55.976;37.136;2023-03-13T11:14:23;-1.94;82.89
66026;SHT31;56312;55.976;37.136;2023-03-13T11:35:53;-2.12;82.63
66026;SHT31;56312;55.976;37.136;2023-03-13T11:57:27;-2.37;82.52
66026;SHT31;56312;55.976;37.136;2023-03-13T12:02:39;-2.32;82.55
66026;SHT31;56312;55.976;37.136;2023-03-13T12:13:21;-2.37;82.43
66026;SHT31;56312;55.976;37.136;2023-03-13T12:18:39;-2.53;82.44
66026;SHT31;56312;55.976;37.136;2023-03-13T12:46:24;-2.31;82.39
66026;SHT31;56312;55.976;37.136;2023-03-13T13:02:26;-2.21;82.41
66026;SHT31;56312;55.976;37.136;2023-03-13T13:07:34;-2.01;82.44
66026;SHT31;56312;55.976;37.136;2023-03-13T13:12:45;-1.97;82.23
66026;SHT31;56312;55.976;37.136;2023-03-13T13:18:24;-2.07;82.20
66026;SHT31;56312;55.976;37.136;2023-03-13T13:23:48;-2.03;82.15
66026;SHT31;56312;55.976;37.136;2023-03-13T13:29:00;-2.11;82.03
66026;SHT31;56312;55.976;37.136;2023-03-13T13:34:07;-2.08;82.01
66026;SHT31;56312;55.976;37.136;2023-03-13T13:39:46;-2.21;81.98
66026;SHT31;56312;55.976;37.136;2023-03-13T13:45:23;-2.08;82.05
66026;SHT31;56312;55.976;37.136;2023-03-13T13:50:30;-2.17;81.94
66026;SHT31;56312;55.976;37.136;2023-03-13T14:06:01;-2.41;81.86
66026;SHT31;56312;55.976;37.136;2023-03-13T14:11:28;-2.39;81.85
66026;SHT31;56312;55.976;37.136;2023-03-13T14:16:37;-2.45;81.82
66026;SHT31;56312;55.976;37.136;2023-03-13T14:21:43;-2.48;81.82
66026;SHT31;56312;55.976;37.136;2023-03-13T14:26:50;-2.52;81.79
66026;SHT31;56312;55.976;37.136;2023-03-13T14:31:58;-2.56;81.76
66026;SHT31;56312;55.976;37.136;2023-03-13T14:37:34;-2.59;81.78
66026;SHT31;56312;55.976;37.136;2023-03-13T14:42:46;-2.62;81.78
66026;SHT31;56312;55.976;37.136;2023-03-13T14:47:53;-2.66;81.86
66026;SHT31;56312;55.976;37.136;2023-03-13T14:53:09;-2.73;81.85
66026;SHT31;56312;55.976;37.136;2023-03-13T15:03:31;-2.83;81.94
66026;SHT31;56312;55.976;37.136;2023-03-13T15:08:40;-2.93;81.93
66026;SHT31;56312;55.976;37.136;2023-03-13T15:13:47;-3.01;81.94
66026;SHT31;56312;55.976;37.136;2023-03-13T15:18:54;-3.05;82.01
66026;SHT31;56312;55.976;37.136;2023-03-13T15:24:09;-3.14;82.08
66026;SHT31;56312;55.976;37.136;2023-03-13T15:29:16;-3.18;82.10
66026;SHT31;56312;55.976;37.136;2023-03-13T15:34:23;-3.24;82.15
66026;SHT31;56312;55.976;37.136;2023-03-13T15:39:30;-3.31;82.11
66026;SHT31;56312;55.976;37.136;2023-03-13T15:44:36;-3.45;82.19
66026;SHT31;56312;55.976;37.136;2023-03-13T15:49:43;-3.54;82.19
66026;SHT31;56312;55.976;37.136;2023-03-13T15:54:49;-3.58;82.22
66026;SHT31;56312;55.976;37.136;2023-03-13T15:59:56;-3.63;82.24
66026;SHT31;56312;55.976;37.136;2023-03-13T16:05:02;-3.70;82.21
66026;SHT31;56312;55.976;37.136;2023-03-13T16:10:28;-3.74;82.27
66026;SHT31;56312;55.976;37.136;2023-03-13T16:15:36;-3.82;82.26
66026;SHT31;56312;55.976;37.136;2023-03-13T16:20:43;-3.89;82.29
66026;SHT31;56312;55.976;37.136;2023-03-13T16:25:49;-4.00;82.26
66026;SHT31;56312;55.976;37.136;2023-03-13T16:30:56;-4.07;82.31
66026;SHT31;56312;55.976;37.136;2023-03-13T16:36:12;-4.14;82.30
66026;SHT31;56312;55.976;37.136;2023-03-13T16:41:21;-4.18;82.35
66026;SHT31;56312;55.976;37.136;2023-03-13T16:46:36;-4.21;82.37
66026;SHT31;56312;55.976;37.136;2023-03-13T16:51:42;-4.29;82.35
66026;SHT31;56312;55.976;37.136;2023-03-13T16:56:48;-4.33;82.36
66026;SHT31;56312;55.976;37.136;2023-03-13T17:01:54;-4.41;82.36
66026;SHT31;56312;55.976;37.136;2023-03-13T17:07:01;-4.45;82.43
66026;SHT31;56312;55.976;37.136;2023-03-13T17:12:08;-4.48;82.39
66026;SHT31;56312;55.976;37.136;2023-03-13T17:17:17;-4.51;82.37
66026;SHT31;56312;55.976;37.136;2023-03-13T17:22:24;-4.53;82.40
66026;SHT31;56312;55.976;37.136;2023-03-13T17:27:30;-4.62;82.38
66026;SHT31;56312;55.976;37.136;2023-03-13T17:32:37;-4.72;82.28
66026;SHT31;56312;55.976;37.136;2023-03-13T17:37:43;-4.73;82.35
66026;SHT31;56312;55.976;37.136;2023-03-13T17:42:49;-4.68;82.37
66026;SHT31;56312;55.976;37.136;2023-03-13T17:47:56;-4.66;82.32
66026;SHT31;56312;55.976;37.136;2023-03-13T17:53:02;-4.65;82.34
66026;SHT31;56312;55.976;37.136;2023-03-13T17:58:08;-4.60;82.35
66026;SHT31;56312;55.976;37.136;2023-03-13T18:03:14;-4.65;82.29
66026;SHT31;56312;55.976;37.136;2023-03-13T18:08:21;-4.65;82.26
66026;SHT31;56312;55.976;37.136;2023-03-13T18:13:27;-4.70;82.20
66026;SHT31;56312;55.976;37.136;2023-03-13T18:18:33;-4.76;82.20
66026;SHT31;56312;55.976;37.136;2023-03-13T18:23:39;-4.77;82.15
66026;SHT31;56312;55.976;37.136;2023-03-13T18:28:46;-4.81;82.12
66026;SHT31;56312;55.976;37.136;2023-03-13T18:33:52;-4.87;82.16
66026;SHT31;56312;55.976;37.136;2023-03-13T18:38:58;-4.87;82.12
66026;SHT31;56312;55.976;37.136;2023-03-13T18:44:05;-4.89;82.12
66026;SHT31;56312;55.976;37.136;2023-03-13T18:49:19;-4.86;82.15
66026;SHT31;56312;55.976;37.136;2023-03-13T18:54:26;-4.90;82.08
66026;SHT31;56312;55.976;37.136;2023-03-13T18:59:32;-4.81;82.13
66026;SHT31;56312;55.976;37.136;2023-03-13T19:04:39;-4.81;82.09
66026;SHT31;56312;55.976;37.136;2023-03-13T19:09:45;-4.87;82.01
66026;SHT31;56312;55.976;37.136;2023-03-13T19:14:51;-4.86;82.03
66026;SHT31;56312;55.976;37.136;2023-03-13T19:20:02;-4.90;81.88
66026;SHT31;56312;55.976;37.136;2023-03-13T19:25:10;-5.05;81.91
66026;SHT31;56312;55.976;37.136;2023-03-13T19:30:21;-5.10;81.90
66026;SHT31;56312;55.976;37.136;2023-03-13T19:35:28;-5.10;81.95
66026;SHT31;56312;55.976;37.136;2023-03-13T19:40:34;-5.01;81.96
66026;SHT31;56312;55.976;37.136;2023-03-13T19:45:40;-5.07;81.91
66026;SHT31;56312;55.976;37.136;2023-03-13T19:50:46;-5.08;81.95
66026;SHT31;56312;55.976;37.136;2023-03-13T19:55:53;-5.14;81.93
66026;SHT31;56312;55.976;37.136;2023-03-13T20:00:59;-5.15;81.87
66026;SHT31;56312;55.976;37.136;2023-03-13T20:06:06;-5.22;81.78
66026;SHT31;56312;55.976;37.136;2023-03-13T20:11:13;-5.40;81.62
66026;SHT31;56312;55.976;37.136;2023-03-13T20:16:19;-5.51;81.66
66026;SHT31;56312;55.976;37.136;2023-03-13T20:21:31;-5.55;81.59
66026;SHT31;56312;55.976;37.136;2023-03-13T20:26:37;-5.73;81.45
66026;SHT31;56312;55.976;37.136;2023-03-13T20:31:44;-5.76;81.56
66026;SHT31;56312;55.976;37.136;2023-03-13T20:36:50;-5.84;81.41
66026;SHT31;56312;55.976;37.136;2023-03-13T20:42:01;-5.93;81.45
66026;SHT31;56312;55.976;37.136;2023-03-13T20:47:07;-6.08;81.30
66026;SHT31;56312;55.976;37.136;2023-03-13T20:52:15;-6.24;81.26
66026;SHT31;56312;55.976;37.136;2023-03-13T20:57:21;-6.46;81.19
66026;SHT31;56312;55.976;37.136;2023-03-13T21:02:27;-6.39;81.39
66026;SHT31;56312;55.976;37.136;2023-03-13T21:07:33;-6.36;81.42
66026;SHT31;56312;55.976;37.136;2023-03-13T21:12:40;-6.53;81.31
66026;SHT31;56312;55.976;37.136;2023-03-13T21:17:46;-6.53;81.41
66026;SHT31;56312;55.976;37.136;2023-03-13T21:22:53;-6.46;81.49
66026;SHT31;56312;55.976;37.136;2023-03-13T21:27:59;-6.48;81.38
66026;SHT31;56312;55.976;37.136;2023-03-13T21:33:05;-6.66;81.30
66026;SHT31;56312;55.976;37.136;2023-03-13T21:38:11;-6.86;81.21
66026;SHT31;56312;55.976;37.136;2023-03-13T21:43:18;-6.84;81.36
66026;SHT31;56312;55.976;37.136;2023-03-13T21:48:24;-6.81;81.43
66026;SHT31;56312;55.976;37.136;2023-03-13T21:53:31;-6.70;81.53
66026;SHT31;56312;55.976;37.136;2023-03-13T21:58:38;-6.66;81.52
66026;SHT31;56312;55.976;37.136;2023-03-13T22:03:44;-6.50;81.67
66026;SHT31;56312;55.976;37.136;2023-03-13T22:08:51;-6.49;81.62
66026;SHT31;56312;55.976;37.136;2023-03-13T22:13:57;-6.53;81.63
66026;SHT31;56312;55.976;37.136;2023-03-13T22:19:03;-6.59;81.60
66026;SHT31;56312;55.976;37.136;2023-03-13T22:24:10;-6.58;81.64
66026;SHT31;56312;55.976;37.136;2023-03-13T22:29:17;-6.54;81.72
66026;SHT31;56312;55.976;37.136;2023-03-13T22:34:23;-6.48;81.73
66026;SHT31;56312;55.976;37.136;2023-03-13T22:39:29;-6.48;81.79
66026;SHT31;56312;55.976;37.136;2023-03-13T22:44:36;-6.48;81.80
66026;SHT31;56312;55.976;37.136;2023-03-13T22:49:42;-6.45;81.83
66026;SHT31;56312;55.976;37.136;2023-03-13T22:54:48;-6.48;81.83
66026;SHT31;56312;55.976;37.136;2023-03-13T22:59:56;-6.48;81.91
66026;SHT31;56312;55.976;37.136;2023-03-13T23:05:04;-6.43;81.95
66026;SHT31;56312;55.976;37.136;2023-03-13T23:10:11;-6.36;81.98
66026;SHT31;56312;55.976;37.136;2023-03-13T23:15:17;-6.25;82.01
66026;SHT31;56312;55.976;37.136;2023-03-13T23:20:24;-6.17;82.01
66026;SHT31;56312;55.976;37.136;2023-03-13T23:25:30;-6.14;82.08
66026;SHT31;56312;55.976;37.136;2023-03-13T23:30:36;-6.15;82.07
66026;SHT31;56312;55.976;37.136;2023-03-13T23:35:43;-6.08;82.14
66026;SHT31;56312;55.976;37.136;2023-03-13T23:40:49;-6.05;82.17
66026;SHT31;56312;55.976;37.136;2023-03-13T23:45:58;-5.98;82.18
66026;SHT31;56312;55.976;37.136;2023-03-13T23:51:05;-5.95;82.21
66026;SHT31;56312;55.976;37.136;2023-03-13T23:56:11;-5.86;82.28
